sensor_id;sensor_type;location;lat;lon;timestamp;P1;durP1;ratioP1;P2;durP2;ratioP2
16800;SDS011;8518;53.236;10.384;2023-04-06T00:05:48;5.13;;;4.23;;
16800;SDS011;8518;53.236;10.384;2023-04-06T00:08:14;6.13;;;4.40;;
16800;SDS011;8518;53.236;10.384;2023-04-06T00:10:40;6.43;;;3.87;;
16800;SDS011;8518;53.236;10.384;2023-04-06T00:16:28;5.20;;;4.00;;
16800;SDS011;8518;53.236;10.384;2023-04-06T00:18:53;6.43;;;4.43;;
16800;SDS011;8518;53.236;10.384;2023-04-06T00:21:19;5.13;;;4.20;;
16800;SDS011;8518;53.236;10.384;2023-04-06T00:27:07;6.90;;;4.17;;
16800;SDS011;8518;53.236;10.384;2023-04-06T00:32:54;6.37;;;4.27;;
16800;SDS011;8518;53.236;10.384;2023-04-06T00:35:20;5.27;;;4.23;;
16800;SDS011;8518;53.236;10.384;2023-04-06T00:37:46;6.60;;;4.17;;
16800;SDS011;8518;53.236;10.384;2023-04-06T00:40:13;6.50;;;4.67;;
16800;SDS011;8518;53.236;10.384;2023-04-06T00:46:01;6.17;;;4.27;;
16800;SDS011;8518;53.236;10.384;2023-04-06T00:51:49;4.93;;;3.60;;
16800;SDS011;8518;53.236;10.384;2023-04-06T00:57:36;6.97;;;4.07;;
16800;SDS011;8518;53.236;10.384;2023-04-06T01:00:02;4.60;;;3.93;;
16800;SDS011;8518;53.236;10.384;2023-04-06T01:05:51;5.67;;;4.00;;
16800;SDS011;8518;53.236;10.384;2023-04-06T01:08:20;5.47;;;3.77;;
16800;SDS011;8518;53.236;10.384;2023-04-06T01:10:46;4.90;;;4.23;;
16800;SDS011;8518;53.236;10.384;2023-04-06T01:16:33;5.90;;;4.50;;
16800;SDS011;8518;53.236;10.384;2023-04-06T01:18:59;6.10;;;4.47;;
16800;SDS011;8518;53.236;10.384;2023-04-06T01:21:25;7.70;;;4.70;;
16800;SDS011;8518;53.236;10.384;2023-04-06T01:27:13;7.47;;;4.67;;
16800;SDS011;8518;53.236;10.384;2023-04-06T01:33:01;8.33;;;4.77;;
16800;SDS011;8518;53.236;10.384;2023-04-06T01:35:26;4.83;;;4.30;;
16800;SDS011;8518;53.236;10.384;2023-04-06T01:37:53;5.83;;;4.43;;
16800;SDS011;8518;53.236;10.384;2023-04-06T01:40:19;5.80;;;3.80;;
16800;SDS011;8518;53.236;10.384;2023-04-06T01:46:06;4.97;;;3.83;;
16800;SDS011;8518;53.236;10.384;2023-04-06T01:48:32;6.33;;;4.23;;
16800;SDS011;8518;53.236;10.384;2023-04-06T01:50:58;5.60;;;4.20;;
16800;SDS011;8518;53.236;10.384;2023-04-06T01:56:46;6.13;;;3.83;;
16800;SDS011;8518;53.236;10.384;2023-04-06T01:59:12;5.43;;;3.70;;
16800;SDS011;8518;53.236;10.384;2023-04-06T02:01:37;7.27;;;3.90;;
16800;SDS011;8518;53.236;10.384;2023-04-06T02:07:25;6.17;;;3.63;;
16800;SDS011;8518;53.236;10.384;2023-04-06T02:09:53;6.10;;;3.87;;
16800;SDS011;8518;53.236;10.384;2023-04-06T02:12:20;6.00;;;3.93;;
16800;SDS011;8518;53.236;10.384;2023-04-06T02:14:47;4.70;;;3.77;;
16800;SDS011;8518;53.236;10.384;2023-04-06T02:17:12;5.10;;;4.00;;
16800;SDS011;8518;53.236;10.384;2023-04-06T02:19:38;4.70;;;3.97;;
16800;SDS011;8518;53.236;10.384;2023-04-06T02:22:03;5.20;;;3.87;;
16800;SDS011;8518;53.236;10.384;2023-04-06T02:24:29;5.43;;;4.00;;
16800;SDS011;8518;53.236;10.384;2023-04-06T02:26:55;5.97;;;3.93;;
16800;SDS011;8518;53.236;10.384;2023-04-06T02:29:20;5.27;;;4.00;;
16800;SDS011;8518;53.236;10.384;2023-04-06T02:31:46;5.37;;;4.10;;
16800;SDS011;8518;53.236;10.384;2023-04-06T02:37:34;5.33;;;3.43;;
16800;SDS011;8518;53.236;10.384;2023-04-06T02:43:22;3.70;;;3.30;;
16800;SDS011;8518;53.236;10.384;2023-04-06T02:45:47;7.07;;;4.03;;
16800;SDS011;8518;53.236;10.384;2023-04-06T02:48:13;5.47;;;3.53;;
16800;SDS011;8518;53.236;10.384;2023-04-06T02:50:39;5.00;;;3.87;;
16800;SDS011;8518;53.236;10.384;2023-04-06T02:56:27;7.40;;;4.23;;
16800;SDS011;8518;53.236;10.384;2023-04-06T02:58:54;4.50;;;3.40;;
16800;SDS011;8518;53.236;10.384;2023-04-06T03:01:21;5.83;;;3.93;;
16800;SDS011;8518;53.236;10.384;2023-04-06T03:07:09;5.30;;;3.40;;
16800;SDS011;8518;53.236;10.384;2023-04-06T03:09:36;5.90;;;4.20;;
16800;SDS011;8518;53.236;10.384;2023-04-06T03:12:02;6.67;;;3.63;;
16800;SDS011;8518;53.236;10.384;2023-04-06T03:14:28;5.20;;;3.60;;
16800;SDS011;8518;53.236;10.384;2023-04-06T03:16:53;6.83;;;3.60;;
16800;SDS011;8518;53.236;10.384;2023-04-06T03:19:19;5.67;;;4.07;;
16800;SDS011;8518;53.236;10.384;2023-04-06T03:21:45;5.23;;;3.60;;
16800;SDS011;8518;53.236;10.384;2023-04-06T03:27:32;5.60;;;3.43;;
16800;SDS011;8518;53.236;10.384;2023-04-06T03:29:58;5.03;;;4.20;;
16800;SDS011;8518;53.236;10.384;2023-04-06T03:32:24;4.27;;;3.50;;
16800;SDS011;8518;53.236;10.384;2023-04-06T03:34:49;6.60;;;3.60;;
16800;SDS011;8518;53.236;10.384;2023-04-06T03:37:15;4.27;;;3.80;;
16800;SDS011;8518;53.236;10.384;2023-04-06T03:39:40;4.87;;;3.60;;
16800;SDS011;8518;53.236;10.384;2023-04-06T03:42:06;5.27;;;3.83;;
16800;SDS011;8518;53.236;10.384;2023-04-06T03:44:32;4.30;;;3.63;;
16800;SDS011;8518;53.236;10.384;2023-04-06T03:46:57;5.83;;;3.60;;
16800;SDS011;8518;53.236;10.384;2023-04-06T03:49:23;4.67;;;3.83;;
16800;SDS011;8518;53.236;10.384;2023-04-06T03:51:49;4.17;;;3.47;;
16800;SDS011;8518;53.236;10.384;2023-04-06T03:57:37;6.90;;;4.67;;
16800;SDS011;8518;53.236;10.384;2023-04-06T04:03:25;4.33;;;3.80;;
16800;SDS011;8518;53.236;10.384;2023-04-06T04:05:52;5.47;;;4.50;;
16800;SDS011;8518;53.236;10.384;2023-04-06T04:08:24;4.80;;;4.20;;
16800;SDS011;8518;53.236;10.384;2023-04-06T04:10:50;6.43;;;4.13;;
16800;SDS011;8518;53.236;10.384;2023-04-06T04:16:38;4.37;;;3.90;;
16800;SDS011;8518;53.236;10.384;2023-04-06T04:19:04;5.13;;;3.97;;
16800;SDS011;8518;53.236;10.384;2023-04-06T04:21:31;6.03;;;4.10;;
16800;SDS011;8518;53.236;10.384;2023-04-06T04:27:19;4.10;;;3.70;;
16800;SDS011;8518;53.236;10.384;2023-04-06T04:29:46;6.43;;;4.40;;
16800;SDS011;8518;53.236;10.384;2023-04-06T04:32:11;4.07;;;3.67;;
16800;SDS011;8518;53.236;10.384;2023-04-06T04:34:38;4.10;;;3.70;;
16800;SDS011;8518;53.236;10.384;2023-04-06T04:37:07;4.93;;;3.90;;
16800;SDS011;8518;53.236;10.384;2023-04-06T04:39:33;5.00;;;3.93;;
16800;SDS011;8518;53.236;10.384;2023-04-06T04:41:58;6.60;;;4.40;;
16800;SDS011;8518;53.236;10.384;2023-04-06T04:44:24;4.97;;;4.30;;
16800;SDS011;8518;53.236;10.384;2023-04-06T04:46:50;5.03;;;4.17;;
16800;SDS011;8518;53.236;10.384;2023-04-06T04:49:15;5.77;;;4.13;;
16800;SDS011;8518;53.236;10.384;2023-04-06T04:51:41;4.60;;;4.03;;
16800;SDS011;8518;53.236;10.384;2023-04-06T04:57:30;6.50;;;4.17;;
16800;SDS011;8518;53.236;10.384;2023-04-06T04:59:55;6.87;;;4.80;;
16800;SDS011;8518;53.236;10.384;2023-04-06T05:02:22;5.77;;;4.60;;
16800;SDS011;8518;53.236;10.384;2023-04-06T05:04:47;7.00;;;5.00;;
16800;SDS011;8518;53.236;10.384;2023-04-06T05:07:13;6.60;;;4.70;;
16800;SDS011;8518;53.236;10.384;2023-04-06T05:09:40;6.23;;;4.80;;
16800;SDS011;8518;53.236;10.384;2023-04-06T05:12:06;6.67;;;4.97;;
16800;SDS011;8518;53.236;10.384;2023-04-06T05:14:31;8.37;;;5.97;;
16800;SDS011;8518;53.236;10.384;2023-04-06T05:16:57;7.60;;;5.70;;
16800;SDS011;8518;53.236;10.384;2023-04-06T05:19:23;7.60;;;5.93;;
16800;SDS011;8518;53.236;10.384;2023-04-06T05:21:49;6.67;;;5.57;;
16800;SDS011;8518;53.236;10.384;2023-04-06T05:27:36;9.30;;;6.43;;
16800;SDS011;8518;53.236;10.384;2023-04-06T05:30:02;8.73;;;6.10;;
16800;SDS011;8518;53.236;10.384;2023-04-06T05:35:50;8.97;;;6.00;;
16800;SDS011;8518;53.236;10.384;2023-04-06T05:38:16;9.43;;;6.10;;
16800;SDS011;8518;53.236;10.384;2023-04-06T05:40:41;6.70;;;5.33;;
16800;SDS011;8518;53.236;10.384;2023-04-06T05:46:30;7.70;;;6.17;;
16800;SDS011;8518;53.236;10.384;2023-04-06T05:48:56;7.20;;;6.03;;
16800;SDS011;8518;53.236;10.384;2023-04-06T05:51:22;7.47;;;6.43;;
16800;SDS011;8518;53.236;10.384;2023-04-06T05:57:10;9.27;;;6.33;;
16800;SDS011;8518;53.236;10.384;2023-04-06T05:59:35;8.53;;;6.40;;
16800;SDS011;8518;53.236;10.384;2023-04-06T06:02:01;8.67;;;5.90;;
16800;SDS011;8518;53.236;10.384;2023-04-06T06:04:26;8.80;;;6.30;;
16800;SDS011;8518;53.236;10.384;2023-04-06T06:06:53;7.67;;;5.73;;
16800;SDS011;8518;53.236;10.384;2023-04-06T06:09:19;6.43;;;5.00;;
16800;SDS011;8518;53.236;10.384;2023-04-06T06:11:45;6.53;;;5.10;;
16800;SDS011;8518;53.236;10.384;2023-04-06T06:17:33;6.77;;;4.83;;
16800;SDS011;8518;53.236;10.384;2023-04-06T06:19:58;6.10;;;4.20;;
16800;SDS011;8518;53.236;10.384;2023-04-06T06:22:24;6.20;;;4.23;;
16800;SDS011;8518;53.236;10.384;2023-04-06T06:24:50;5.60;;;4.20;;
16800;SDS011;8518;53.236;10.384;2023-04-06T06:27:15;6.20;;;4.53;;
16800;SDS011;8518;53.236;10.384;2023-04-06T06:29:41;5.43;;;3.73;;
16800;SDS011;8518;53.236;10.384;2023-04-06T06:32:06;5.30;;;3.80;;
16800;SDS011;8518;53.236;10.384;2023-04-06T06:34:34;4.17;;;3.77;;
16800;SDS011;8518;53.236;10.384;2023-04-06T06:37:00;5.00;;;4.00;;
16800;SDS011;8518;53.236;10.384;2023-04-06T06:39:27;5.37;;;3.80;;
16800;SDS011;8518;53.236;10.384;2023-04-06T06:41:52;4.93;;;3.53;;
16800;SDS011;8518;53.236;10.384;2023-04-06T06:47:42;6.13;;;3.20;;
16800;SDS011;8518;53.236;10.384;2023-04-06T06:50:08;4.63;;;3.63;;
16800;SDS011;8518;53.236;10.384;2023-04-06T06:55:56;6.70;;;3.93;;
16800;SDS011;8518;53.236;10.384;2023-04-06T06:58:21;5.07;;;3.30;;
16800;SDS011;8518;53.236;10.384;2023-04-06T07:00:50;5.33;;;3.37;;
16800;SDS011;8518;53.236;10.384;2023-04-06T07:06:42;4.63;;;3.00;;
16800;SDS011;8518;53.236;10.384;2023-04-06T07:09:08;3.83;;;3.07;;
16800;SDS011;8518;53.236;10.384;2023-04-06T07:11:34;5.00;;;3.37;;
16800;SDS011;8518;53.236;10.384;2023-04-06T07:17:22;5.33;;;3.23;;
16800;SDS011;8518;53.236;10.384;2023-04-06T07:19:47;4.33;;;2.93;;
16800;SDS011;8518;53.236;10.384;2023-04-06T07:22:13;7.20;;;4.17;;
16800;SDS011;8518;53.236;10.384;2023-04-06T07:24:39;4.33;;;3.17;;
16800;SDS011;8518;53.236;10.384;2023-04-06T07:27:05;3.97;;;3.20;;
16800;SDS011;8518;53.236;10.384;2023-04-06T07:29:31;4.50;;;3.03;;
16800;SDS011;8518;53.236;10.384;2023-04-06T07:31:57;6.07;;;3.40;;
16800;SDS011;8518;53.236;10.384;2023-04-06T07:34:22;5.20;;;3.50;;
16800;SDS011;8518;53.236;10.384;2023-04-06T07:36:48;5.70;;;4.00;;
16800;SDS011;8518;53.236;10.384;2023-04-06T07:39:14;3.93;;;3.10;;
16800;SDS011;8518;53.236;10.384;2023-04-06T07:41:41;4.53;;;3.20;;
16800;SDS011;8518;53.236;10.384;2023-04-06T07:47:28;7.67;;;3.50;;
16800;SDS011;8518;53.236;10.384;2023-04-06T07:49:54;5.60;;;3.50;;
16800;SDS011;8518;53.236;10.384;2023-04-06T07:52:23;4.20;;;3.23;;
16800;SDS011;8518;53.236;10.384;2023-04-06T07:54:49;4.13;;;2.77;;
16800;SDS011;8518;53.236;10.384;2023-04-06T07:57:16;6.30;;;3.57;;
16800;SDS011;8518;53.236;10.384;2023-04-06T07:59:43;3.40;;;2.70;;
16800;SDS011;8518;53.236;10.384;2023-04-06T08:02:08;5.80;;;3.50;;
16800;SDS011;8518;53.236;10.384;2023-04-06T08:04:34;4.73;;;2.70;;
16800;SDS011;8518;53.236;10.384;2023-04-06T08:07:00;4.77;;;3.07;;
16800;SDS011;8518;53.236;10.384;2023-04-06T08:09:26;4.10;;;3.23;;
16800;SDS011;8518;53.236;10.384;2023-04-06T08:11:58;4.60;;;3.00;;
16800;SDS011;8518;53.236;10.384;2023-04-06T08:14:30;8.33;;;3.20;;
16800;SDS011;8518;53.236;10.384;2023-04-06T08:16:55;4.00;;;2.93;;
16800;SDS011;8518;53.236;10.384;2023-04-06T08:19:21;5.57;;;3.30;;
16800;SDS011;8518;53.236;10.384;2023-04-06T08:21:47;4.17;;;2.90;;
16800;SDS011;8518;53.236;10.384;2023-04-06T08:27:36;3.25;;;2.78;;
16800;SDS011;8518;53.236;10.384;2023-04-06T08:30:08;3.85;;;3.00;;
16800;SDS011;8518;53.236;10.384;2023-04-06T08:35:56;4.20;;;2.97;;
16800;SDS011;8518;53.236;10.384;2023-04-06T08:41:44;4.50;;;2.38;;
16800;SDS011;8518;53.236;10.384;2023-04-06T08:47:32;3.67;;;2.80;;
16800;SDS011;8518;53.236;10.384;2023-04-06T08:53:21;4.40;;;2.88;;
16800;SDS011;8518;53.236;10.384;2023-04-06T08:55:46;4.20;;;2.75;;
16800;SDS011;8518;53.236;10.384;2023-04-06T08:58:13;3.47;;;2.65;;
16800;SDS011;8518;53.236;10.384;2023-04-06T09:00:42;4.47;;;2.92;;
16800;SDS011;8518;53.236;10.384;2023-04-06T09:06:31;3.60;;;2.75;;
16800;SDS011;8518;53.236;10.384;2023-04-06T09:08:57;3.10;;;2.75;;
16800;SDS011;8518;53.236;10.384;2023-04-06T09:11:26;3.78;;;3.00;;
16800;SDS011;8518;53.236;10.384;2023-04-06T09:17:20;3.83;;;3.28;;
16800;SDS011;8518;53.236;10.384;2023-04-06T09:19:46;4.35;;;3.15;;
16800;SDS011;8518;53.236;10.384;2023-04-06T09:22:16;4.38;;;3.10;;
16800;SDS011;8518;53.236;10.384;2023-04-06T09:24:43;4.30;;;3.00;;
16800;SDS011;8518;53.236;10.384;2023-04-06T09:27:13;3.72;;;3.20;;
16800;SDS011;8518;53.236;10.384;2023-04-06T09:29:40;4.43;;;3.22;;
16800;SDS011;8518;53.236;10.384;2023-04-06T09:32:09;3.25;;;2.85;;
16800;SDS011;8518;53.236;10.384;2023-04-06T09:34:39;3.45;;;2.95;;
16800;SDS011;8518;53.236;10.384;2023-04-06T09:37:14;3.72;;;2.65;;
16800;SDS011;8518;53.236;10.384;2023-04-06T09:39:44;4.45;;;3.10;;
16800;SDS011;8518;53.236;10.384;2023-04-06T09:42:31;4.45;;;3.10;;
16800;SDS011;8518;53.236;10.384;2023-04-06T09:44:56;3.72;;;2.85;;
16800;SDS011;8518;53.236;10.384;2023-04-06T09:47:22;5.63;;;3.65;;
16800;SDS011;8518;53.236;10.384;2023-04-06T09:49:50;3.45;;;3.13;;
16800;SDS011;8518;53.236;10.384;2023-04-06T09:52:18;4.55;;;4.05;;
16800;SDS011;8518;53.236;10.384;2023-04-06T09:54:49;4.00;;;3.42;;
16800;SDS011;8518;53.236;10.384;2023-04-06T10:06:03;4.28;;;3.65;;
16800;SDS011;8518;53.236;10.384;2023-04-06T10:08:34;6.47;;;3.60;;
16800;SDS011;8518;53.236;10.384;2023-04-06T10:11:01;5.68;;;3.65;;
16800;SDS011;8518;53.236;10.384;2023-04-06T10:16:49;5.05;;;3.03;;
16800;SDS011;8518;53.236;10.384;2023-04-06T10:22:44;4.88;;;3.58;;
16800;SDS011;8518;53.236;10.384;2023-04-06T10:25:29;4.40;;;4.00;;
16800;SDS011;8518;53.236;10.384;2023-04-06T10:28:04;4.78;;;4.13;;
16800;SDS011;8518;53.236;10.384;2023-04-06T10:30:32;4.35;;;3.80;;
16800;SDS011;8518;53.236;10.384;2023-04-06T10:36:22;5.78;;;4.13;;
16800;SDS011;8518;53.236;10.384;2023-04-06T10:38:57;4.43;;;3.70;;
16800;SDS011;8518;53.236;10.384;2023-04-06T10:41:35;5.32;;;4.03;;
16800;SDS011;8518;53.236;10.384;2023-04-06T10:47:39;4.60;;;4.07;;
16800;SDS011;8518;53.236;10.384;2023-04-06T10:50:05;4.72;;;3.95;;
16800;SDS011;8518;53.236;10.384;2023-04-06T10:55:56;5.07;;;3.80;;
16800;SDS011;8518;53.236;10.384;2023-04-06T10:58:26;5.93;;;4.05;;
16800;SDS011;8518;53.236;10.384;2023-04-06T11:00:52;4.43;;;3.88;;
16800;SDS011;8518;53.236;10.384;2023-04-06T11:06:41;5.25;;;4.10;;
16800;SDS011;8518;53.236;10.384;2023-04-06T11:09:11;4.75;;;4.25;;
16800;SDS011;8518;53.236;10.384;2023-04-06T11:11:38;5.30;;;4.10;;
16800;SDS011;8518;53.236;10.384;2023-04-06T11:17:27;5.85;;;4.70;;
16800;SDS011;8518;53.236;10.384;2023-04-06T11:19:53;5.32;;;3.97;;
16800;SDS011;8518;53.236;10.384;2023-04-06T11:22:19;4.90;;;4.22;;
16800;SDS011;8518;53.236;10.384;2023-04-06T11:24:45;5.15;;;4.25;;
16800;SDS011;8518;53.236;10.384;2023-04-06T11:27:11;5.10;;;4.10;;
16800;SDS011;8518;53.236;10.384;2023-04-06T11:29:37;4.32;;;3.92;;
16800;SDS011;8518;53.236;10.384;2023-04-06T11:32:06;5.88;;;4.45;;
16800;SDS011;8518;53.236;10.384;2023-04-06T11:34:34;6.88;;;4.72;;
16800;SDS011;8518;53.236;10.384;2023-04-06T11:37:11;4.88;;;4.47;;
16800;SDS011;8518;53.236;10.384;2023-04-06T11:39:37;4.68;;;4.10;;
16800;SDS011;8518;53.236;10.384;2023-04-06T11:45:41;5.20;;;4.70;;
16800;SDS011;8518;53.236;10.384;2023-04-06T11:51:35;5.78;;;4.68;;
16800;SDS011;8518;53.236;10.384;2023-04-06T11:57:24;5.10;;;4.70;;
16800;SDS011;8518;53.236;10.384;2023-04-06T11:59:50;7.18;;;5.10;;
16800;SDS011;8518;53.236;10.384;2023-04-06T12:02:16;5.10;;;4.60;;
16800;SDS011;8518;53.236;10.384;2023-04-06T12:04:42;7.57;;;5.10;;
16800;SDS011;8518;53.236;10.384;2023-04-06T12:07:08;5.78;;;5.18;;
16800;SDS011;8518;53.236;10.384;2023-04-06T12:09:34;5.82;;;5.22;;
16800;SDS011;8518;53.236;10.384;2023-04-06T12:12:01;6.25;;;5.00;;
16800;SDS011;8518;53.236;10.384;2023-04-06T12:14:26;5.38;;;4.88;;
16800;SDS011;8518;53.236;10.384;2023-04-06T12:16:52;5.50;;;5.00;;
16800;SDS011;8518;53.236;10.384;2023-04-06T12:19:18;5.60;;;5.10;;
16800;SDS011;8518;53.236;10.384;2023-04-06T12:21:43;6.13;;;5.50;;
16800;SDS011;8518;53.236;10.384;2023-04-06T12:27:31;5.93;;;5.35;;
16800;SDS011;8518;53.236;10.384;2023-04-06T12:29:57;7.82;;;5.32;;
16800;SDS011;8518;53.236;10.384;2023-04-06T12:32:23;6.18;;;5.20;;
16800;SDS011;8518;53.236;10.384;2023-04-06T12:34:50;5.95;;;5.15;;
16800;SDS011;8518;53.236;10.384;2023-04-06T12:37:17;6.93;;;5.53;;
16800;SDS011;8518;53.236;10.384;2023-04-06T12:39:43;7.50;;;5.63;;
16800;SDS011;8518;53.236;10.384;2023-04-06T12:42:10;6.07;;;5.53;;
16800;SDS011;8518;53.236;10.384;2023-04-06T12:44:35;5.82;;;5.32;;
16800;SDS011;8518;53.236;10.384;2023-04-06T12:47:01;5.78;;;5.18;;
16800;SDS011;8518;53.236;10.384;2023-04-06T12:49:27;6.13;;;5.53;;
16800;SDS011;8518;53.236;10.384;2023-04-06T12:51:53;5.60;;;5.00;;
16800;SDS011;8518;53.236;10.384;2023-04-06T12:57:41;5.95;;;5.32;;
16800;SDS011;8518;53.236;10.384;2023-04-06T13:00:07;6.80;;;6.05;;
16800;SDS011;8518;53.236;10.384;2023-04-06T13:05:59;6.18;;;5.57;;
16800;SDS011;8518;53.236;10.384;2023-04-06T13:08:26;6.00;;;5.50;;
16800;SDS011;8518;53.236;10.384;2023-04-06T13:10:52;5.88;;;5.28;;
16800;SDS011;8518;53.236;10.384;2023-04-06T13:16:40;6.25;;;5.43;;
16800;SDS011;8518;53.236;10.384;2023-04-06T13:22:28;6.28;;;5.25;;
16800;SDS011;8518;53.236;10.384;2023-04-06T13:24:54;6.75;;;5.55;;
16800;SDS011;8518;53.236;10.384;2023-04-06T13:27:20;7.53;;;5.43;;
16800;SDS011;8518;53.236;10.384;2023-04-06T13:29:45;6.82;;;5.50;;
16800;SDS011;8518;53.236;10.384;2023-04-06T13:32:11;6.15;;;5.55;;
16800;SDS011;8518;53.236;10.384;2023-04-06T13:34:37;7.38;;;5.53;;
16800;SDS011;8518;53.236;10.384;2023-04-06T13:37:02;6.00;;;5.40;;
16800;SDS011;8518;53.236;10.384;2023-04-06T13:39:28;8.20;;;5.73;;
16800;SDS011;8518;53.236;10.384;2023-04-06T13:41:54;5.87;;;5.27;;
16800;SDS011;8518;53.236;10.384;2023-04-06T13:47:42;6.97;;;5.57;;
16800;SDS011;8518;53.236;10.384;2023-04-06T13:50:08;6.30;;;5.50;;
16800;SDS011;8518;53.236;10.384;2023-04-06T13:55:56;9.00;;;5.37;;
16800;SDS011;8518;53.236;10.384;2023-04-06T14:01:44;6.73;;;6.03;;
16800;SDS011;8518;53.236;10.384;2023-04-06T14:07:31;8.83;;;6.07;;
16800;SDS011;8518;53.236;10.384;2023-04-06T14:09:57;6.83;;;5.73;;
16800;SDS011;8518;53.236;10.384;2023-04-06T14:12:23;6.87;;;5.60;;
16800;SDS011;8518;53.236;10.384;2023-04-06T14:14:49;7.00;;;6.30;;
16800;SDS011;8518;53.236;10.384;2023-04-06T14:17:15;6.70;;;5.70;;
16800;SDS011;8518;53.236;10.384;2023-04-06T14:19:40;6.53;;;5.40;;
16800;SDS011;8518;53.236;10.384;2023-04-06T14:22:06;5.93;;;5.33;;
16800;SDS011;8518;53.236;10.384;2023-04-06T14:24:33;6.10;;;5.50;;
16800;SDS011;8518;53.236;10.384;2023-04-06T14:27:00;9.33;;;5.90;;
16800;SDS011;8518;53.236;10.384;2023-04-06T14:29:27;7.30;;;5.20;;
16800;SDS011;8518;53.236;10.384;2023-04-06T14:31:52;6.57;;;5.10;;
16800;SDS011;8518;53.236;10.384;2023-04-06T14:34:24;8.47;;;6.00;;
16800;SDS011;8518;53.236;10.384;2023-04-06T14:36:52;7.90;;;5.73;;
16800;SDS011;8518;53.236;10.384;2023-04-06T14:39:18;6.67;;;5.50;;
16800;SDS011;8518;53.236;10.384;2023-04-06T14:41:44;6.33;;;5.73;;
16800;SDS011;8518;53.236;10.384;2023-04-06T14:47:32;5.93;;;5.33;;
16800;SDS011;8518;53.236;10.384;2023-04-06T14:49:57;6.17;;;5.57;;
16800;SDS011;8518;53.236;10.384;2023-04-06T14:52:23;7.60;;;5.80;;
16800;SDS011;8518;53.236;10.384;2023-04-06T14:54:49;6.50;;;5.73;;
16800;SDS011;8518;53.236;10.384;2023-04-06T14:57:15;6.53;;;5.90;;
16800;SDS011;8518;53.236;10.384;2023-04-06T14:59:40;6.20;;;5.60;;
16800;SDS011;8518;53.236;10.384;2023-04-06T15:02:06;6.77;;;5.07;;
16800;SDS011;8518;53.236;10.384;2023-04-06T15:04:33;6.90;;;5.60;;
16800;SDS011;8518;53.236;10.384;2023-04-06T15:07:01;5.57;;;5.07;;
16800;SDS011;8518;53.236;10.384;2023-04-06T15:09:27;6.00;;;5.20;;
16800;SDS011;8518;53.236;10.384;2023-04-06T15:11:52;9.33;;;5.20;;
16800;SDS011;8518;53.236;10.384;2023-04-06T15:17:40;6.73;;;5.17;;
16800;SDS011;8518;53.236;10.384;2023-04-06T15:20:06;6.40;;;5.23;;
16800;SDS011;8518;53.236;10.384;2023-04-06T15:25:54;7.03;;;5.43;;
16800;SDS011;8518;53.236;10.384;2023-04-06T15:28:19;6.03;;;5.33;;
16800;SDS011;8518;53.236;10.384;2023-04-06T15:30:45;7.03;;;5.60;;
16800;SDS011;8518;53.236;10.384;2023-04-06T15:36:33;5.27;;;4.77;;
16800;SDS011;8518;53.236;10.384;2023-04-06T15:38:59;7.30;;;5.00;;
16800;SDS011;8518;53.236;10.384;2023-04-06T15:41:25;6.00;;;5.10;;
16800;SDS011;8518;53.236;10.384;2023-04-06T15:47:14;5.00;;;4.50;;
16800;SDS011;8518;53.236;10.384;2023-04-06T15:49:40;8.10;;;5.73;;
16800;SDS011;8518;53.236;10.384;2023-04-06T15:52:06;5.97;;;5.37;;
16800;SDS011;8518;53.236;10.384;2023-04-06T15:54:31;7.80;;;5.63;;
16800;SDS011;8518;53.236;10.384;2023-04-06T15:56:57;6.83;;;5.37;;
16800;SDS011;8518;53.236;10.384;2023-04-06T15:59:23;7.60;;;5.10;;
16800;SDS011;8518;53.236;10.384;2023-04-06T16:01:48;6.90;;;5.17;;
16800;SDS011;8518;53.236;10.384;2023-04-06T16:07:36;5.60;;;4.73;;
16800;SDS011;8518;53.236;10.384;2023-04-06T16:10:02;7.57;;;5.57;;
16800;SDS011;8518;53.236;10.384;2023-04-06T16:15:51;7.27;;;5.43;;
16800;SDS011;8518;53.236;10.384;2023-04-06T16:21:38;6.87;;;5.70;;
16800;SDS011;8518;53.236;10.384;2023-04-06T16:27:27;6.10;;;5.13;;
16800;SDS011;8518;53.236;10.384;2023-04-06T16:29:53;7.17;;;5.17;;
16800;SDS011;8518;53.236;10.384;2023-04-06T16:32:19;5.70;;;5.10;;
16800;SDS011;8518;53.236;10.384;2023-04-06T16:34:44;6.63;;;5.17;;
16800;SDS011;8518;53.236;10.384;2023-04-06T16:37:11;8.53;;;5.63;;
16800;SDS011;8518;53.236;10.384;2023-04-06T16:39:36;6.60;;;5.90;;
16800;SDS011;8518;53.236;10.384;2023-04-06T16:42:02;6.17;;;5.37;;
16800;SDS011;8518;53.236;10.384;2023-04-06T16:44:28;6.37;;;5.73;;
16800;SDS011;8518;53.236;10.384;2023-04-06T16:46:55;7.30;;;5.87;;
16800;SDS011;8518;53.236;10.384;2023-04-06T16:49:21;8.23;;;6.47;;
16800;SDS011;8518;53.236;10.384;2023-04-06T16:51:46;7.47;;;5.77;;
16800;SDS011;8518;53.236;10.384;2023-04-06T16:57:35;6.40;;;5.80;;
16800;SDS011;8518;53.236;10.384;2023-04-06T17:03:23;6.23;;;5.63;;
16800;SDS011;8518;53.236;10.384;2023-04-06T17:05:49;8.13;;;5.60;;
16800;SDS011;8518;53.236;10.384;2023-04-06T17:08:14;7.30;;;6.07;;
16800;SDS011;8518;53.236;10.384;2023-04-06T17:10:40;8.20;;;5.80;;
16800;SDS011;8518;53.236;10.384;2023-04-06T17:16:28;7.00;;;6.30;;
16800;SDS011;8518;53.236;10.384;2023-04-06T17:18:53;8.50;;;6.27;;
16800;SDS011;8518;53.236;10.384;2023-04-06T17:21:19;7.77;;;6.20;;
16800;SDS011;8518;53.236;10.384;2023-04-06T17:27:10;7.43;;;6.10;;
16800;SDS011;8518;53.236;10.384;2023-04-06T17:29:35;8.57;;;6.73;;
16800;SDS011;8518;53.236;10.384;2023-04-06T17:32:01;7.93;;;5.87;;
16800;SDS011;8518;53.236;10.384;2023-04-06T17:34:27;8.57;;;6.47;;
16800;SDS011;8518;53.236;10.384;2023-04-06T17:36:53;7.80;;;6.40;;
16800;SDS011;8518;53.236;10.384;2023-04-06T17:39:18;7.63;;;6.20;;
16800;SDS011;8518;53.236;10.384;2023-04-06T17:41:44;8.00;;;6.53;;
16800;SDS011;8518;53.236;10.384;2023-04-06T17:47:32;9.33;;;6.20;;
16800;SDS011;8518;53.236;10.384;2023-04-06T17:49:58;8.73;;;6.50;;
16800;SDS011;8518;53.236;10.384;2023-04-06T17:55:46;7.00;;;6.30;;
16800;SDS011;8518;53.236;10.384;2023-04-06T17:58:12;7.87;;;6.27;;
16800;SDS011;8518;53.236;10.384;2023-04-06T18:00:38;7.83;;;6.13;;
16800;SDS011;8518;53.236;10.384;2023-04-06T18:06:25;8.13;;;6.43;;
16800;SDS011;8518;53.236;10.384;2023-04-06T18:08:53;6.90;;;6.20;;
16800;SDS011;8518;53.236;10.384;2023-04-06T18:11:19;8.30;;;6.47;;
16800;SDS011;8518;53.236;10.384;2023-04-06T18:17:07;8.07;;;6.77;;
16800;SDS011;8518;53.236;10.384;2023-04-06T18:19:33;7.63;;;6.80;;
16800;SDS011;8518;53.236;10.384;2023-04-06T18:21:58;6.47;;;5.87;;
16800;SDS011;8518;53.236;10.384;2023-04-06T18:24:27;7.87;;;6.43;;
16800;SDS011;8518;53.236;10.384;2023-04-06T18:26:53;7.23;;;6.53;;
16800;SDS011;8518;53.236;10.384;2023-04-06T18:29:20;8.27;;;7.37;;
16800;SDS011;8518;53.236;10.384;2023-04-06T18:31:46;10.53;;;6.90;;
16800;SDS011;8518;53.236;10.384;2023-04-06T18:37:36;7.37;;;6.63;;
16800;SDS011;8518;53.236;10.384;2023-04-06T18:40:02;9.17;;;7.27;;
16800;SDS011;8518;53.236;10.384;2023-04-06T18:45:50;10.93;;;6.80;;
16800;SDS011;8518;53.236;10.384;2023-04-06T18:51:38;9.83;;;6.83;;
16800;SDS011;8518;53.236;10.384;2023-04-06T18:57:27;9.00;;;7.37;;
16800;SDS011;8518;53.236;10.384;2023-04-06T18:59:52;9.97;;;7.47;;
16800;SDS011;8518;53.236;10.384;2023-04-06T19:02:19;9.13;;;7.03;;
16800;SDS011;8518;53.236;10.384;2023-04-06T19:04:45;8.17;;;7.10;;
16800;SDS011;8518;53.236;10.384;2023-04-06T19:07:10;8.43;;;7.53;;
16800;SDS011;8518;53.236;10.384;2023-04-06T19:09:38;9.53;;;7.53;;
16800;SDS011;8518;53.236;10.384;2023-04-06T19:12:03;8.80;;;7.33;;
16800;SDS011;8518;53.236;10.384;2023-04-06T19:14:29;9.90;;;7.53;;
16800;SDS011;8518;53.236;10.384;2023-04-06T19:16:56;10.40;;;7.80;;
16800;SDS011;8518;53.236;10.384;2023-04-06T19:19:22;11.90;;;7.40;;
16800;SDS011;8518;53.236;10.384;2023-04-06T19:21:47;9.53;;;7.03;;
16800;SDS011;8518;53.236;10.384;2023-04-06T19:27:35;8.80;;;7.43;;
16800;SDS011;8518;53.236;10.384;2023-04-06T19:30:05;11.23;;;7.73;;